Time;durP1;ratioP1;P1;durP2;ratioP2;P2;SDS_P1;SDS_P2;PMS_P1;PMS_P2;Temp;Humidity;BMP_temperature;BMP_pressure;BME280_temperature;BME280_humidity;BME280_pressure;Samples;Min_cycle;Max_cycle;Signal;HPM_P1;HPM_P2
2021/03/11 00:00:35;;;;;;;23.50;13.75;;;1.20;71.50;;;0.28;54.43;94900.97;5075074;28;20243;-81
2021/03/11 00:03:11;;;;;;;22.55;13.35;;;1.30;71.50;;;0.30;55.19;94906.00;5076901;28;20185;-82
2021/03/11 00:05:40;;;;;;;23.55;13.50;;;1.30;72.40;;;0.29;54.68;94907.75;5075262;28;20218;-82
2021/03/11 00:08:07;;;;;;;24.00;14.25;;;1.30;71.50;;;0.29;54.67;94900.03;5075115;28;20633;-81
2021/03/11 00:10:36;;;;;;;26.52;14.23;;;1.30;71.50;;;0.31;54.66;94903.28;5074947;28;20554;-81
2021/03/11 00:13:05;;;;;;;25.83;14.43;;;1.30;71.40;;;0.30;54.57;94895.66;5074934;28;20676;-82
2021/03/11 00:15:33;;;;;;;23.50;13.57;;;1.30;71.50;;;0.31;54.79;94889.56;5075198;28;20222;-82
2021/03/11 00:18:00;;;;;;;25.83;14.73;;;1.30;71.50;;;0.29;54.76;94887.13;5091514;28;20657;-82
2021/03/11 00:20:28;;;;;;;23.83;14.00;;;1.40;71.60;;;0.35;55.17;94882.38;5091786;28;20191;-82
2021/03/11 00:22:55;;;;;;;26.00;15.40;;;1.30;71.60;;;0.39;55.46;94894.06;5091418;28;20194;-81
2021/03/11 00:25:27;;;;;;;26.50;15.55;;;1.40;71.60;;;0.45;55.59;94891.81;5058058;28;20236;-82
2021/03/11 00:27:54;;;;;;;30.95;17.25;;;1.40;71.80;;;0.44;56.06;94869.53;5058295;28;20206;-82
2021/03/11 00:30:23;;;;;;;26.60;16.13;;;1.40;71.80;;;0.57;55.92;94871.06;5058235;28;20305;-82
2021/03/11 00:32:50;;;;;;;92.30;34.38;;;1.50;72.00;;;0.61;55.49;94875.81;5075032;28;20684;-82
2021/03/11 00:35:17;;;;;;;67.88;29.08;;;1.50;72.10;;;0.67;55.78;94873.66;5074516;28;20298;-81
2021/03/11 00:37:46;;;;;;;49.28;22.67;;;1.60;72.10;;;0.70;55.72;94873.41;5074761;28;20217;-81
2021/03/11 00:40:16;;;;;;;37.03;19.42;;;1.60;72.10;;;0.73;55.67;94878.28;5074826;28;20293;-80
2021/03/11 00:42:43;;;;;;;34.88;18.52;;;1.60;72.10;;;0.74;55.63;94867.81;5074664;28;20539;-82
2021/03/11 00:45:11;;;;;;;31.10;16.50;;;1.60;72.00;;;0.71;55.56;94859.53;5074379;28;20210;-81
2021/03/11 00:47:40;;;;;;;28.35;16.55;;;1.70;72.10;;;0.73;55.39;94866.22;5074513;28;20309;-80
2021/03/11 00:50:15;;;;;;;25.40;15.27;;;1.70;72.10;;;0.76;55.73;94870.31;5058254;28;20202;-82
2021/03/11 00:52:43;;;;;;;28.35;15.55;;;1.70;72.30;;;0.74;55.49;94860.09;5074695;28;20221;-82
2021/03/11 00:55:14;;;;;;;28.88;15.73;;;1.70;72.00;;;0.72;55.25;94862.00;5058863;28;20201;-82
2021/03/11 00:57:41;;;;;;;27.38;15.00;;;1.70;72.00;;;0.73;55.52;94863.63;5074213;28;20230;-81
2021/03/11 01:00:12;;;;;;;25.98;15.45;;;1.70;71.90;;;0.70;55.58;94853.56;5074322;28;20195;-81
2021/03/11 01:02:51;;;;;;;25.75;14.48;;;1.70;72.00;;;0.67;55.37;94858.16;5076460;28;20183;-82
2021/03/11 01:05:33;;;;;;;26.13;14.85;;;1.70;71.80;;;0.64;55.63;94854.09;5075213;28;20190;-82
2021/03/11 01:08:07;;;;;;;28.98;15.85;;;1.70;72.40;;;0.61;55.54;94844.03;5075967;28;20260;-82
2021/03/11 01:10:36;;;;;;;25.85;14.38;;;1.70;71.80;;;0.62;55.36;94841.34;5076969;28;20203;-82
2021/03/11 01:13:04;;;;;;;23.70;14.55;;;1.70;72.00;;;0.60;55.65;94838.06;5078313;28;20226;-81
2021/03/11 01:15:43;;;;;;;23.63;14.65;;;1.70;71.80;;;0.58;55.44;94829.63;5078117;28;20203;-82
2021/03/11 01:18:12;;;;;;;26.42;15.35;;;1.70;72.40;;;0.56;55.65;94823.78;5094893;28;20688;-82
2021/03/11 01:20:40;;;;;;;23.67;14.32;;;1.60;71.80;;;0.53;55.27;94821.47;5095171;28;20235;-82
2021/03/11 01:23:08;;;;;;;21.45;13.32;;;1.60;71.80;;;0.50;55.24;94818.34;5078354;28;20207;-82
2021/03/11 01:25:34;;;;;;;24.95;13.88;;;1.60;71.80;;;0.43;55.14;94826.59;5078064;28;20611;-82
2021/03/11 01:28:02;;;;;;;32.90;15.68;;;1.60;71.70;;;0.40;55.19;94824.28;5094742;28;20244;-82
2021/03/11 01:30:29;;;;;;;27.58;15.20;;;1.50;71.60;;;0.34;55.47;94824.00;5094972;28;20275;-82
2021/03/11 01:32:55;;;;;;;21.60;12.75;;;1.50;71.60;;;0.29;55.16;94821.81;5078046;28;20242;-82
2021/03/11 01:35:22;;;;;;;23.10;13.13;;;1.50;71.50;;;0.20;55.20;94807.13;5077764;28;20203;-81
2021/03/11 01:37:49;;;;;;;26.90;13.82;;;1.40;71.50;;;0.17;55.31;94817.69;5061531;28;20294;-82
2021/03/11 01:40:17;;;;;;;22.35;13.23;;;1.40;71.40;;;0.11;55.42;94806.13;5077976;28;20198;-81
2021/03/11 01:42:43;;;;;;;24.35;13.68;;;1.30;71.40;;;0.04;55.39;94805.84;5077710;28;20191;-82
2021/03/11 01:45:11;;;;;;;20.00;12.52;;;1.30;71.40;;;0.01;55.42;94805.28;5077921;28;20206;-82
2021/03/11 01:47:38;;;;;;;21.63;12.38;;;1.20;71.40;;;-0.04;55.30;94805.66;5077813;28;20214;-82
2021/03/11 01:50:07;;;;;;;26.42;13.48;;;1.20;71.50;;;-0.05;55.36;94796.28;5077641;28;20209;-82
2021/03/11 01:52:34;;;;;;;20.63;12.98;;;1.20;71.60;;;-0.10;55.39;94798.44;5077553;28;20230;-82
2021/03/11 01:55:03;;;;;;;22.58;13.30;;;1.10;71.50;;;-0.15;55.30;94788.50;5077509;28;20206;-81
2021/03/11 01:57:31;;;;;;;25.25;14.20;;;1.10;71.60;;;-0.19;55.52;94785.38;5077687;28;20214;-82
2021/03/11 01:59:59;;;;;;;24.45;14.40;;;1.00;71.50;;;-0.24;55.57;94773.84;5094243;28;20295;-82
2021/03/11 02:02:25;;;;;;;21.48;13.07;;;1.00;71.60;;;-0.24;55.50;94774.66;5077729;28;20223;-82
2021/03/11 02:04:52;;;;;;;26.05;14.18;;;1.00;71.70;;;-0.25;55.45;94767.84;5060807;28;20202;-82
2021/03/11 02:07:19;;;;;;;24.27;14.90;;;1.00;71.70;;;-0.22;55.77;94775.34;5060680;28;20221;-82
2021/03/11 02:09:45;;;;;;;25.38;14.45;;;0.90;71.80;;;-0.22;55.61;94764.19;5077317;28;20206;-82
2021/03/11 02:12:44;;;;;;;22.58;13.70;;;0.90;71.90;;;-0.23;55.71;94765.13;5077527;28;20223;-81
2021/03/11 02:15:27;;;;;;;25.58;14.63;;;0.90;72.60;;;-0.23;55.59;94760.81;5094026;28;20203;-81
2021/03/11 02:18:43;;;;;;;22.95;13.13;;;0.90;72.20;;;-0.25;55.62;94754.97;5093886;28;20193;-81
2021/03/11 02:21:19;;;;;;;23.05;12.98;;;0.90;72.80;;;-0.23;55.61;94753.09;5104573;28;20231;-81
2021/03/11 02:24:59;;;;;;;26.98;14.32;;;0.90;71.90;;;-0.26;55.58;94739.63;5093976;28;20212;-82
2021/03/11 02:27:33;;;;;;;20.08;12.50;;;0.90;72.80;;;-0.26;55.70;94744.78;5038664;28;20269;-82
2021/03/11 02:30:02;;;;;;;22.10;12.93;;;0.90;71.90;;;-0.22;55.61;94744.41;5076900;28;20195;-82
2021/03/11 02:32:30;;;;;;;24.92;13.75;;;0.90;72.10;;;-0.18;55.89;94737.22;5076576;28;20571;-81
2021/03/11 02:35:00;;;;;;;23.90;13.57;;;0.90;72.10;;;-0.14;55.60;94733.44;5093450;28;20728;-81
2021/03/11 02:37:57;;;;;;;23.13;13.13;;;0.90;72.40;;;-0.11;55.55;94725.47;5076717;28;20211;-81
2021/03/11 02:40:34;;;;;;;25.85;13.32;;;0.90;73.10;;;-0.06;55.21;94712.97;5072525;28;20213;-82
2021/03/11 02:43:08;;;;;;;21.98;12.60;;;0.90;72.70;;;-0.04;55.66;94708.53;5076757;28;20714;-82
2021/03/11 02:45:35;;;;;;;27.63;14.05;;;0.90;72.50;;;0.03;55.54;94708.00;5076668;28;20194;-81
2021/03/11 02:48:07;;;;;;;22.63;13.57;;;1.00;72.40;;;0.09;55.56;94700.53;5059935;28;20285;-82
2021/03/11 02:50:37;;;;;;;24.90;14.45;;;1.00;72.70;;;0.15;55.64;94701.78;5076555;28;20236;-81
2021/03/11 02:53:10;;;;;;;23.48;14.18;;;1.10;72.70;;;0.21;55.60;94696.06;5076383;28;20706;-81
2021/03/11 02:55:41;;;;;;;26.48;14.85;;;1.10;72.70;;;0.26;55.60;94696.50;5093201;28;20211;-81
2021/03/11 02:58:12;;;;;;;26.33;14.57;;;1.10;72.70;;;0.27;55.64;94681.81;5076182;28;20665;-82
2021/03/11 03:00:44;;;;;;;26.83;15.20;;;1.20;72.90;;;0.35;55.52;94694.06;5093179;28;20214;-81
2021/03/11 03:03:12;;;;;;;26.73;15.52;;;1.20;72.80;;;0.38;55.71;94689.44;5076508;28;20179;-82
2021/03/11 03:05:39;;;;;;;26.90;15.82;;;1.20;72.70;;;0.42;55.56;94675.31;5055474;28;20708;-82
2021/03/11 03:08:09;;;;;;;23.75;14.23;;;1.30;72.60;;;0.46;55.53;94668.97;5056025;28;20248;-81
2021/03/11 03:10:37;;;;;;;28.35;14.50;;;1.30;72.70;;;0.50;55.57;94661.75;5056117;28;20227;-82
2021/03/11 03:13:15;;;;;;;28.08;15.23;;;1.40;72.80;;;0.54;55.42;94644.22;5058599;28;20226;-82
2021/03/11 03:15:43;;;;;;;25.67;14.27;;;1.40;73.10;;;0.55;55.33;94644.09;5056185;28;20226;-81
2021/03/11 03:18:14;;;;;;;25.20;14.98;;;1.40;72.60;;;0.55;55.64;94627.78;5055846;28;20191;-82
2021/03/11 03:20:43;;;;;;;26.27;14.48;;;1.50;73.70;;;0.60;55.59;94629.00;5055845;28;20242;-82
2021/03/11 03:23:10;;;;;;;24.63;13.82;;;1.50;72.60;;;0.59;55.51;94631.72;5056113;28;20195;-83
2021/03/11 03:25:48;;;;;;;23.10;13.60;;;1.50;72.60;;;0.62;55.56;94634.84;5056501;28;20681;-82
2021/03/11 03:28:16;;;;;;;28.00;14.82;;;1.50;72.70;;;0.59;55.56;94626.56;5055678;28;20261;-82
2021/03/11 03:30:44;;;;;;;24.67;14.88;;;1.50;72.50;;;0.65;55.22;94636.34;5055748;28;20239;-82
2021/03/11 03:33:12;;;;;;;24.02;13.85;;;1.60;72.60;;;0.63;55.49;94621.00;5055364;28;20254;-82
2021/03/11 03:35:40;;;;;;;26.85;15.35;;;1.60;72.60;;;0.67;55.73;94615.53;5055595;28;20233;-82
2021/03/11 03:38:08;;;;;;;25.55;14.00;;;1.60;72.60;;;0.69;55.72;94613.66;5055469;28;20196;-82
2021/03/11 03:40:36;;;;;;;29.15;15.45;;;1.60;72.60;;;0.70;55.55;94616.09;5055794;28;20282;-81
2021/03/11 03:43:20;;;;;;;30.95;16.38;;;1.60;72.60;;;0.69;55.73;94605.91;5055130;28;20265;-82
2021/03/11 03:46:05;;;;;;;25.10;14.90;;;1.60;72.90;;;0.71;55.55;94609.16;5073606;28;20207;-82
2021/03/11 03:48:41;;;;;;;29.90;15.77;;;1.60;73.00;;;0.71;55.91;94612.56;5051318;28;20310;-81
2021/03/11 03:51:08;;;;;;;26.65;15.70;;;1.60;72.90;;;0.74;56.11;94625.16;5089528;28;20214;-82
2021/03/11 03:53:43;;;;;;;25.95;15.20;;;1.60;72.50;;;0.76;55.97;94630.22;5051834;28;20668;-81
2021/03/11 03:56:22;;;;;;;27.77;15.82;;;1.70;72.80;;;0.77;55.66;94637.81;5059958;28;20215;-81
2021/03/11 03:58:52;;;;;;;27.15;15.45;;;1.70;72.90;;;0.80;55.61;94636.72;5050053;28;20194;-81
2021/03/11 04:01:21;;;;;;;28.17;15.93;;;1.70;72.70;;;0.83;55.73;94633.03;5067528;28;20214;-81
2021/03/11 04:03:50;;;;;;;29.20;16.70;;;1.70;72.60;;;0.86;55.36;94633.59;5071869;28;20223;-80
2021/03/11 04:06:17;;;;;;;25.73;15.57;;;1.70;73.50;;;0.83;55.60;94610.63;5049695;28;20215;-81
2021/03/11 04:08:46;;;;;;;24.23;14.75;;;1.70;72.70;;;0.85;55.80;94616.47;5066261;28;20206;-81
2021/03/11 04:11:16;;;;;;;25.15;13.75;;;1.80;72.80;;;0.90;55.47;94614.25;5067219;28;20215;-82
2021/03/11 04:13:44;;;;;;;24.42;14.23;;;1.80;72.70;;;0.92;55.49;94624.47;5078217;28;20249;-81
2021/03/11 04:16:13;;;;;;;27.08;14.93;;;1.80;72.70;;;0.89;55.94;94619.56;5065955;28;20219;-80
2021/03/11 04:18:40;;;;;;;27.88;15.68;;;1.80;73.60;;;0.95;55.73;94625.00;5053081;28;20195;-81
2021/03/11 04:21:08;;;;;;;23.25;13.70;;;1.80;72.60;;;0.91;55.57;94613.31;5053942;28;20242;-81
2021/03/11 04:23:37;;;;;;;24.92;14.68;;;1.80;72.60;;;0.94;55.49;94614.81;5056581;28;20244;-81
2021/03/11 04:26:06;;;;;;;25.15;13.98;;;1.80;72.70;;;0.94;55.46;94613.06;5067823;28;20203;-81
2021/03/11 04:28:34;;;;;;;25.80;15.10;;;1.80;72.60;;;0.94;55.64;94615.63;5065269;28;20191;-81
2021/03/11 04:31:01;;;;;;;26.20;14.40;;;1.80;72.60;;;0.92;55.89;94606.41;5078908;28;20416;-80
2021/03/11 04:33:29;;;;;;;28.10;14.77;;;1.90;72.70;;;0.95;55.86;94603.53;5069577;28;20276;-82
2021/03/11 04:35:57;;;;;;;27.00;15.50;;;1.80;72.60;;;0.95;55.88;94594.03;5050719;28;20728;-82
2021/03/11 04:38:24;;;;;;;32.53;17.65;;;1.90;72.70;;;0.97;55.81;94593.88;5067055;28;20391;-83
2021/03/11 04:40:52;;;;;;;42.03;21.80;;;1.90;72.80;;;0.98;55.57;94594.69;5089135;28;20242;-82
2021/03/11 04:43:20;;;;;;;75.65;36.30;;;1.90;72.80;;;0.98;55.36;94598.09;5071357;28;20819;-81
2021/03/11 04:45:48;;;;;;;81.63;37.85;;;1.90;72.80;;;1.00;55.85;94591.03;5071482;28;20749;-81
2021/03/11 04:48:16;;;;;;;84.78;38.00;;;1.90;72.80;;;1.00;55.83;94585.88;5066489;28;20195;-81
2021/03/11 04:50:45;;;;;;;71.10;33.42;;;1.90;72.80;;;1.05;55.76;94590.56;5059732;28;20212;-80
2021/03/11 04:53:12;;;;;;;62.67;30.02;;;1.90;72.80;;;1.02;55.76;94588.28;5063395;28;20267;-82
2021/03/11 04:55:42;;;;;;;58.55;27.58;;;1.90;72.80;;;1.09;55.67;94591.94;5074277;28;20234;-82
2021/03/11 04:58:09;;;;;;;45.50;22.13;;;2.00;72.80;;;1.06;55.61;94582.72;5075327;28;20244;-81
2021/03/11 05:00:38;;;;;;;40.47;20.23;;;2.00;72.80;;;1.11;55.77;94588.25;5056029;28;20729;-81
2021/03/11 05:03:10;;;;;;;41.15;20.25;;;2.00;73.00;;;1.11;55.56;94593.44;5072475;28;20206;-82
2021/03/11 05:05:40;;;;;;;35.55;19.10;;;2.00;73.10;;;1.12;55.75;94591.66;5072141;28;20238;-82
2021/03/11 05:08:09;;;;;;;33.67;17.52;;;2.00;72.90;;;1.13;55.76;94579.56;5038976;28;20199;-82
2021/03/11 05:10:36;;;;;;;34.25;16.75;;;2.00;72.80;;;1.14;55.95;94581.19;5060483;28;20203;-82
2021/03/11 05:13:04;;;;;;;32.53;16.52;;;2.00;72.80;;;1.13;55.90;94576.97;5073787;28;20302;-83
2021/03/11 05:15:31;;;;;;;32.17;16.58;;;2.00;72.80;;;1.15;55.96;94580.22;5058687;28;20269;-82
2021/03/11 05:17:58;;;;;;;29.80;15.98;;;2.00;72.80;;;1.16;55.96;94582.69;5094132;28;20233;-82
2021/03/11 05:20:25;;;;;;;30.58;16.33;;;2.00;72.90;;;1.19;56.24;94574.63;5069560;28;20199;-82
2021/03/11 05:22:53;;;;;;;31.67;16.10;;;2.10;73.00;;;1.18;55.79;94559.28;5042075;28;20282;-82
2021/03/11 05:25:20;;;;;;;28.58;16.17;;;2.10;74.00;;;1.22;56.05;94560.59;5073558;28;20194;-82
2021/03/11 05:27:47;;;;;;;31.75;16.35;;;2.10;73.10;;;1.25;55.94;94555.97;5078336;28;20413;-82
2021/03/11 05:30:15;;;;;;;40.28;20.23;;;2.10;73.10;;;1.28;56.01;94560.03;5094863;28;20205;-82
2021/03/11 05:32:43;;;;;;;46.70;22.13;;;2.10;73.10;;;1.29;55.93;94556.50;5077929;28;20219;-82
2021/03/11 05:35:10;;;;;;;56.42;27.77;;;2.10;73.10;;;1.32;56.29;94566.56;5073516;28;20269;-82
2021/03/11 05:37:40;;;;;;;42.55;21.77;;;2.10;73.20;;;1.31;56.10;94559.75;5043206;28;20242;-82
2021/03/11 05:40:12;;;;;;;35.42;20.00;;;2.20;73.50;;;1.37;55.90;94559.19;5074166;28;20183;-82
2021/03/11 05:42:44;;;;;;;32.30;17.70;;;2.20;73.50;;;1.39;56.28;94554.69;5057728;28;20248;-82
2021/03/11 05:45:11;;;;;;;30.70;16.67;;;2.20;73.30;;;1.42;56.01;94538.09;5057475;28;20206;-82
2021/03/11 05:47:43;;;;;;;32.88;17.75;;;2.20;73.20;;;1.47;56.23;94540.25;5057846;28;20229;-81
2021/03/11 05:50:11;;;;;;;31.70;17.35;;;2.30;73.30;;;1.49;56.12;94527.97;5057647;28;20199;-82
2021/03/11 05:52:39;;;;;;;30.38;16.23;;;2.30;73.40;;;1.55;56.57;94528.22;5057808;28;20223;-82
2021/03/11 05:55:08;;;;;;;26.55;15.40;;;2.30;73.40;;;1.61;56.25;94526.78;5057551;28;20721;-82
2021/03/11 05:57:42;;;;;;;27.13;15.60;;;2.40;73.60;;;1.67;56.18;94522.81;5058139;28;20684;-82
2021/03/11 06:00:20;;;;;;;26.73;14.93;;;2.40;73.50;;;1.73;56.16;94530.00;5073960;28;20665;-82
2021/03/11 06:02:56;;;;;;;23.90;14.82;;;2.50;73.50;;;1.79;55.98;94529.41;5074068;28;20197;-82
2021/03/11 06:05:23;;;;;;;26.88;15.30;;;2.50;73.60;;;1.86;56.39;94525.28;5057660;28;20649;-82
2021/03/11 06:07:51;;;;;;;32.55;16.67;;;2.50;73.50;;;1.97;56.27;94526.03;5057219;28;20290;-83
2021/03/11 06:10:20;;;;;;;32.45;17.65;;;2.60;73.70;;;2.00;55.95;94513.59;5057062;28;20199;-83
2021/03/11 06:12:49;;;;;;;32.35;18.42;;;2.70;73.80;;;2.13;56.21;94520.16;5057283;28;20272;-83
2021/03/11 06:15:31;;;;;;;32.85;18.20;;;2.70;73.80;;;2.19;56.36;94501.47;5057178;28;20207;-82
2021/03/11 06:17:59;;;;;;;27.67;16.02;;;2.80;74.20;;;2.29;56.13;94498.78;5057336;28;20202;-82
2021/03/11 06:20:26;;;;;;;27.33;16.15;;;2.90;73.90;;;2.38;56.10;94501.28;5057049;28;20669;-82
2021/03/11 06:22:54;;;;;;;31.00;17.05;;;2.90;73.80;;;2.48;56.09;94506.34;5073472;28;20699;-83
2021/03/11 06:25:22;;;;;;;32.28;18.25;;;3.00;74.80;;;2.51;56.03;94497.47;5041039;28;20714;-82
2021/03/11 06:27:59;;;;;;;34.00;18.27;;;3.10;74.00;;;2.64;56.08;94499.66;5058240;28;20256;-82
2021/03/11 06:30:34;;;;;;;31.30;17.23;;;3.20;73.90;;;2.74;56.17;94496.97;5057274;28;20198;-82
2021/03/11 06:33:05;;;;;;;31.25;18.30;;;3.30;74.30;;;2.81;56.00;94492.78;5056831;28;20608;-83
2021/03/11 06:35:34;;;;;;;31.05;16.95;;;3.40;74.00;;;2.86;56.25;94493.94;5056974;28;20669;-82
2021/03/11 06:38:01;;;;;;;26.73;15.68;;;3.40;74.00;;;2.97;56.23;94494.66;5056654;28;20665;-82
2021/03/11 06:40:29;;;;;;;27.75;15.98;;;3.50;74.00;;;3.07;56.08;94497.91;5056884;28;20605;-82
2021/03/11 06:43:13;;;;;;;28.80;15.50;;;3.50;74.00;;;3.16;56.23;94484.03;5056606;28;20249;-82
2021/03/11 06:45:41;;;;;;;29.08;15.98;;;3.70;74.40;;;3.24;56.25;94475.47;5073181;28;20229;-83
2021/03/11 06:48:29;;;;;;;27.77;15.38;;;3.80;74.00;;;3.34;55.67;94488.28;5056541;28;20264;-82
2021/03/11 06:50:58;;;;;;;24.77;14.48;;;3.90;74.40;;;3.41;56.42;94493.69;5037469;28;20219;-82
2021/03/11 06:53:25;;;;;;;26.95;15.55;;;3.90;74.00;;;3.53;56.08;94490.63;5056254;28;20693;-83
2021/03/11 06:55:51;;;;;;;23.77;14.77;;;4.00;73.90;;;3.63;56.12;94481.88;5073180;28;20215;-82
2021/03/11 06:58:26;;;;;;;24.77;15.07;;;4.10;74.00;;;3.71;56.34;94487.09;5056991;28;20646;-83
2021/03/11 07:01:07;;;;;;;26.20;14.90;;;4.20;74.00;;;3.79;55.99;94471.53;5040060;28;20252;-82
2021/03/11 07:03:43;;;;;;;25.42;15.23;;;4.30;74.30;;;3.87;56.24;94481.13;5059386;28;20211;-80
2021/03/11 07:06:29;;;;;;;26.75;16.05;;;4.30;74.00;;;3.88;56.05;94461.97;5068429;28;20268;-82
2021/03/11 07:08:58;;;;;;;26.88;15.13;;;4.50;74.10;;;3.99;55.77;94471.22;5064964;28;20222;-81
2021/03/11 07:11:28;;;;;;;27.15;14.55;;;4.50;73.70;;;4.04;55.57;94470.72;5064551;28;20218;-81
2021/03/11 07:13:58;;;;;;;27.55;15.50;;;4.60;73.60;;;4.09;56.10;94476.22;5070916;28;20218;-81
2021/03/11 07:16:27;;;;;;;23.92;15.02;;;4.60;73.60;;;4.12;55.91;94460.34;5048996;28;20229;-81
2021/03/11 07:19:29;;;;;;;26.10;15.57;;;4.70;73.60;;;4.12;55.84;94470.72;5081366;28;20661;-82
2021/03/11 07:21:56;;;;;;;25.58;15.13;;;4.70;73.60;;;4.16;55.84;94461.63;5008763;28;20216;-81
2021/03/11 07:24:38;;;;;;;24.10;14.60;;;4.80;73.40;;;4.22;55.76;94467.97;5052934;28;20707;-82
2021/03/11 07:27:07;;;;;;;25.38;14.82;;;4.80;73.60;;;4.25;55.93;94465.06;5071884;28;20218;-81
2021/03/11 07:29:35;;;;;;;23.90;14.40;;;4.80;73.40;;;4.29;55.87;94463.75;5065753;28;20199;-80
2021/03/11 07:32:04;;;;;;;23.40;13.85;;;4.90;73.40;;;4.32;55.95;94455.63;5073244;28;20755;-81
2021/03/11 07:34:37;;;;;;;25.55;15.02;;;4.90;73.40;;;4.38;55.56;94457.59;5054191;28;20225;-81
2021/03/11 07:37:05;;;;;;;26.65;14.48;;;5.10;73.60;;;4.39;55.67;94459.19;5062391;28;20215;-79
2021/03/11 07:39:40;;;;;;;26.30;15.18;;;5.00;73.30;;;4.42;55.73;94461.47;5079048;28;20686;-81
2021/03/11 07:42:08;;;;;;;24.08;13.90;;;5.00;73.40;;;4.44;56.00;94462.13;5062611;28;20215;-80
2021/03/11 07:44:39;;;;;;;23.25;14.20;;;5.10;73.30;;;4.44;55.70;94443.94;5067814;28;20213;-82
2021/03/11 07:47:09;;;;;;;22.13;13.63;;;5.10;73.20;;;4.50;55.90;94432.06;5068753;28;20227;-82
2021/03/11 07:49:37;;;;;;;23.90;14.00;;;5.10;73.20;;;4.55;55.57;94419.38;5053086;28;20241;-81
2021/03/11 07:52:06;;;;;;;23.00;14.57;;;5.10;73.30;;;4.65;55.91;94424.38;5053226;28;20243;-81
2021/03/11 07:54:34;;;;;;;25.65;14.27;;;5.20;73.50;;;4.72;55.97;94411.53;5045286;28;20203;-81
2021/03/11 07:57:03;;;;;;;22.08;13.27;;;5.20;74.30;;;4.79;55.67;94404.69;5051381;28;20215;-81
2021/03/11 07:59:31;;;;;;;19.50;12.48;;;5.30;73.50;;;4.87;55.89;94399.47;5065346;28;20213;-81
2021/03/11 08:02:08;;;;;;;22.63;13.82;;;5.40;73.60;;;4.97;55.52;94399.28;5048352;28;20241;-81
2021/03/11 08:04:41;;;;;;;22.70;13.80;;;5.40;73.60;;;5.03;55.60;94397.75;5054352;28;20211;-81
2021/03/11 08:07:34;;;;;;;23.90;13.52;;;5.50;73.40;;;5.06;55.54;94387.03;5054607;28;20223;-82
2021/03/11 08:10:01;;;;;;;20.13;12.13;;;5.50;73.30;;;5.17;55.52;94391.06;5035016;28;20239;-81
2021/03/11 08:12:40;;;;;;;20.17;12.18;;;5.60;73.20;;;5.24;55.30;94384.19;5060093;28;20231;-81
2021/03/11 08:15:28;;;;;;;24.10;13.02;;;5.70;73.40;;;5.30;55.41;94380.91;5054499;28;20210;-82
2021/03/11 08:17:55;;;;;;;19.65;11.80;;;5.70;73.30;;;5.40;55.37;94372.88;5077578;28;20207;-81
2021/03/11 08:20:37;;;;;;;21.75;12.73;;;5.80;73.30;;;5.50;55.55;94372.63;5071336;28;20209;-81
2021/03/11 08:23:06;;;;;;;21.15;12.15;;;5.90;73.50;;;5.61;55.56;94367.03;5068644;28;20574;-83
2021/03/11 08:25:41;;;;;;;18.58;11.40;;;6.00;73.50;;;5.71;55.41;94365.00;5080244;28;20203;-82
2021/03/11 08:28:10;;;;;;;19.85;12.32;;;6.00;73.40;;;5.79;55.57;94371.91;5069314;28;20179;-81
2021/03/11 08:30:40;;;;;;;19.98;11.68;;;6.10;73.20;;;5.85;55.47;94386.03;5063560;28;20222;-81
2021/03/11 08:33:15;;;;;;;18.88;11.68;;;6.20;73.20;;;5.88;55.35;94377.88;5089457;28;20230;-81
2021/03/11 08:35:45;;;;;;;17.85;11.18;;;6.20;73.20;;;5.92;55.32;94377.34;5072806;28;20309;-82
2021/03/11 08:38:21;;;;;;;18.45;11.35;;;6.30;73.30;;;6.02;55.44;94347.69;5069893;28;20207;-81
2021/03/11 08:41:13;;;;;;;19.52;11.50;;;6.40;73.40;;;6.08;55.23;94328.75;5065910;28;20217;-81
2021/03/11 08:43:41;;;;;;;18.38;11.68;;;6.50;73.40;;;6.19;55.35;94324.88;5075776;28;20265;-81
2021/03/11 08:46:19;;;;;;;21.35;13.07;;;6.50;73.40;;;6.28;55.52;94321.22;5071349;28;20272;-81
2021/03/11 08:48:51;;;;;;;22.60;12.43;;;6.60;73.50;;;6.37;55.50;94324.53;5068716;28;20199;-82
2021/03/11 08:51:18;;;;;;;19.67;12.25;;;6.70;73.60;;;6.48;55.20;94336.28;5065199;28;20616;-82
2021/03/11 08:53:54;;;;;;;19.15;11.65;;;6.80;73.60;;;6.54;55.10;94320.75;5078145;28;20289;-81
2021/03/11 08:56:21;;;;;;;17.58;11.18;;;6.80;73.60;;;6.60;54.92;94311.38;5050090;28;20681;-82
2021/03/11 08:59:07;;;;;;;15.98;11.20;;;6.90;73.70;;;6.64;55.20;94310.06;5090112;28;20195;-83
2021/03/11 09:01:47;;;;;;;17.95;11.20;;;6.90;73.80;;;6.68;55.14;94303.47;5059579;28;20233;-81
2021/03/11 09:04:34;;;;;;;20.75;11.57;;;7.00;73.50;;;6.72;54.99;94304.72;5059750;28;20279;-81
2021/03/11 09:07:10;;;;;;;19.52;12.50;;;7.10;73.70;;;6.79;55.26;94301.41;5086742;28;20321;-81
2021/03/11 09:09:51;;;;;;;17.48;11.50;;;7.20;73.80;;;6.88;55.38;94316.75;5045949;28;20206;-81
2021/03/11 09:12:29;;;;;;;17.92;11.35;;;7.20;73.40;;;6.97;55.03;94314.00;5070417;28;20223;-81
2021/03/11 09:14:58;;;;;;;18.70;11.50;;;7.30;73.60;;;7.03;55.21;94306.28;5067119;28;20207;-83
2021/03/11 09:17:31;;;;;;;17.70;10.70;;;7.50;73.60;;;7.13;54.75;94307.75;5066941;28;20225;-80
2021/03/11 09:20:14;;;;;;;15.88;10.63;;;7.40;73.30;;;7.19;54.86;94314.88;5066977;28;20231;-82
2021/03/11 09:22:49;;;;;;;17.05;11.07;;;7.50;73.20;;;7.21;54.88;94308.47;5052155;28;20219;-81
2021/03/11 09:25:24;;;;;;;15.75;10.40;;;7.60;73.30;;;7.27;54.80;94301.69;5054112;28;20203;-82
2021/03/11 09:28:07;;;;;;;15.27;10.15;;;7.60;73.10;;;7.35;54.65;94298.16;5056161;28;20230;-82
2021/03/11 09:30:41;;;;;;;14.65;9.75;;;7.70;73.10;;;7.44;55.06;94280.56;5060131;28;20223;-81
2021/03/11 09:33:22;;;;;;;18.42;10.27;;;7.70;73.40;;;7.61;54.54;94279.28;5067516;28;20575;-83
2021/03/11 09:35:51;;;;;;;15.50;10.10;;;7.80;73.20;;;7.75;54.79;94282.00;5071610;28;20297;-83
2021/03/11 09:38:22;;;;;;;14.38;10.10;;;7.90;73.40;;;7.90;54.66;94268.84;5076021;28;20289;-84
2021/03/11 09:40:58;;;;;;;14.23;9.85;;;8.00;73.40;;;7.98;54.51;94272.13;5075521;28;20215;-82
2021/03/11 09:43:36;;;;;;;15.18;10.27;;;8.10;73.10;;;8.05;54.46;94279.22;5075900;28;20297;-81
2021/03/11 09:46:19;;;;;;;15.55;10.25;;;8.20;73.00;;;8.11;54.55;94273.22;5091636;28;20592;-83
2021/03/11 09:48:55;;;;;;;15.38;10.18;;;8.30;73.00;;;8.25;54.26;94279.31;5059182;28;20206;-83
2021/03/11 09:51:27;;;;;;;14.27;10.30;;;8.40;73.20;;;8.36;54.21;94262.28;5075980;28;20210;-82
2021/03/11 09:54:04;;;;;;;14.73;9.73;;;8.50;73.10;;;8.47;54.19;94273.03;5059017;28;20730;-82
2021/03/11 09:56:40;;;;;;;12.30;9.10;;;8.60;73.00;;;8.56;54.01;94259.81;5069459;28;20272;-82
2021/03/11 09:59:14;;;;;;;14.68;9.77;;;8.70;73.00;;;8.70;54.17;94263.25;5081225;28;20191;-83
2021/03/11 10:01:43;;;;;;;14.40;9.38;;;8.80;73.00;;;8.84;54.27;94258.88;5074816;28;20219;-82
2021/03/11 10:04:24;;;;;;;13.50;8.82;;;8.90;73.00;;;8.95;54.00;94261.72;5059493;28;20290;-83
2021/03/11 10:07:00;;;;;;;16.17;10.38;;;9.00;72.70;;;9.01;53.48;94254.91;5058745;28;20771;-83
2021/03/11 10:09:38;;;;;;;15.30;9.85;;;9.10;72.50;;;9.11;53.40;94263.16;5056440;28;20217;-82
2021/03/11 10:12:06;;;;;;;15.90;10.45;;;9.20;72.30;;;9.13;53.62;94266.38;5069754;28;20219;-83
2021/03/11 10:14:34;;;;;;;14.90;9.88;;;9.30;72.40;;;9.16;53.19;94269.63;5055527;28;20195;-83
2021/03/11 10:17:04;;;;;;;12.65;9.43;;;9.40;72.20;;;9.16;53.23;94273.03;5039316;28;20322;-83
2021/03/11 10:19:35;;;;;;;13.07;9.63;;;9.40;71.90;;;9.16;53.31;94264.38;5057438;28;20727;-84
2021/03/11 10:22:06;;;;;;;13.02;9.38;;;9.50;71.90;;;9.14;53.32;94264.56;5056610;28;20230;-83
2021/03/11 10:24:52;;;;;;;14.93;9.68;;;9.50;71.80;;;9.11;53.03;94272.84;5040989;28;20649;-83
2021/03/11 10:27:26;;;;;;;14.15;9.80;;;9.50;71.50;;;9.15;53.29;94268.00;5069941;28;20219;-82
2021/03/11 10:30:32;;;;;;;13.35;9.32;;;9.50;71.80;;;9.14;53.27;94254.09;5055955;28;20249;-82
2021/03/11 10:33:03;;;;;;;14.75;9.52;;;9.50;71.70;;;9.19;53.34;94243.88;5015982;28;20254;-83
2021/03/11 10:35:36;;;;;;;15.63;9.98;;;9.50;71.80;;;9.23;53.04;94241.66;5032765;28;20276;-82
2021/03/11 10:38:29;;;;;;;13.68;9.05;;;9.60;71.70;;;9.27;53.04;94232.41;5047912;28;20199;-83
2021/03/11 10:41:29;;;;;;;13.38;9.10;;;9.60;71.50;;;9.27;53.02;94224.53;5059413;28;20215;-83